SBPL/PNZ METAR and TAF weather

Enter ICAO airport designator
Station Type Date Time Source
SBPL METAR 2022/11/26 10:00 UTC NOAA

SBPL 261000Z 13007KT CAVOK 25/22 Q1014


Station Type Date Time Source
SBPL Decoded METAR 2022/11/26 10:00 UTC NOAA

Petrolina , Brazil (SBPL) 09-21S 040-33W
Nov 26, 2022 - 05:00 AM EST / 2022.11.26 1000 UTC
Wind: from the SE (130 degrees) at 8 MPH (7 KT):0
Visibility: greater than 7 mile(s):0
Temperature: 77 F (25 C)
Dew Point: 71 F (22 C)
Relative Humidity: 83%
Pressure (altimeter): 29.94 in. Hg (1014 hPa)
ob: SBPL 261000Z 13007KT CAVOK 25/22 Q1014
cycle: 10

Station Type Date Time Source
SBPL TAF 2022/11/26 12:08 UTC NOAA

TAF SBPL 260900Z 2612/2712 07007KT 9999 SCT030 TX29/2618Z TN23/2709Z
BECMG 2616/2618 30007KT SCT025 FEW030TCU
TEMPO 2700/2703 18010KT 7000 TSRA SCT020 FEW030CB
BECMG 2703/2705 13005KT FEW025
RMK PFV

Example: see airport list